Time;durP1;ratioP1;P1;durP2;ratioP2;P2;SDS_P1;SDS_P2;PMS_P1;PMS_P2;Temp;Humidity;BMP_temperature;BMP_pressure;BME280_temperature;BME280_humidity;BME280_pressure;Samples;Min_cycle;Max_cycle;Signal;HPM_P1;HPM_P2
2021/01/19 00:01:08;;;;;;;14.93;4.03;;;5.90;99.90;;;;;;5054247;28;20044;-74
2021/01/19 00:03:33;;;;;;;10.88;4.57;;;5.90;99.90;;;;;;5054610;28;20025;-74
2021/01/19 00:05:59;;;;;;;14.88;3.67;;;5.90;99.90;;;;;;5037428;28;20538;-74
2021/01/19 00:08:24;;;;;;;8.57;3.35;;;5.90;99.90;;;;;;5051396;28;20028;-74
2021/01/19 00:10:50;;;;;;;12.75;3.97;;;5.90;99.90;;;;;;5046724;28;20471;-74
2021/01/19 00:13:20;;;;;;;11.20;3.05;;;5.90;99.90;;;;;;5040843;28;20070;-74
2021/01/19 00:15:49;;;;;;;14.38;3.05;;;5.80;99.90;;;;;;5053560;28;20032;-74
2021/01/19 00:18:15;;;;;;;19.42;3.25;;;5.80;99.90;;;;;;5055362;28;20083;-74
2021/01/19 00:20:41;;;;;;;13.98;2.78;;;5.90;99.90;;;;;;5048921;28;20029;-74
2021/01/19 00:23:07;;;;;;;8.75;2.20;;;5.90;99.90;;;;;;5035439;28;20018;-74
2021/01/19 00:25:35;;;;;;;17.85;2.60;;;5.90;99.90;;;;;;5041068;28;20017;-74
2021/01/19 00:28:00;;;;;;;11.30;2.13;;;5.90;99.90;;;;;;5055366;28;20150;-74
2021/01/19 00:30:26;;;;;;;7.68;2.30;;;5.90;99.90;;;;;;5049275;28;20030;-74
2021/01/19 00:32:51;;;;;;;8.18;1.88;;;5.90;99.90;;;;;;5034050;28;20048;-74
2021/01/19 00:35:17;;;;;;;7.90;1.38;;;5.90;99.90;;;;;;5033969;28;20040;-74
2021/01/19 00:37:43;;;;;;;9.65;1.23;;;5.90;99.90;;;;;;5043300;28;20368;-74
2021/01/19 00:40:09;;;;;;;15.52;1.77;;;5.90;99.90;;;;;;5053009;28;20414;-74
2021/01/19 00:42:34;;;;;;;6.10;1.15;;;5.90;99.90;;;;;;5033967;28;20029;-74
2021/01/19 00:45:00;;;;;;;11.68;1.25;;;5.80;99.90;;;;;;5033829;28;20032;-74
2021/01/19 00:47:26;;;;;;;7.38;1.30;;;5.80;99.90;;;;;;5033694;28;20124;-74
2021/01/19 00:49:51;;;;;;;9.93;1.15;;;5.80;99.90;;;;;;5044590;28;20470;-74
2021/01/19 00:52:17;;;;;;;14.85;1.92;;;5.80;99.90;;;;;;5034363;28;20030;-74
2021/01/19 00:54:43;;;;;;;6.90;0.77;;;5.80;99.90;;;;;;5034748;28;20075;-74
2021/01/19 00:57:09;;;;;;;12.57;1.67;;;5.90;99.90;;;;;;5034616;28;20034;-74
2021/01/19 00:59:35;;;;;;;11.27;0.98;;;5.80;99.90;;;;;;5034638;28;20026;-74
2021/01/19 01:02:01;;;;;;;6.10;0.82;;;5.80;99.90;;;;;;5047926;28;20021;-74
2021/01/19 01:04:26;;;;;;;4.80;0.60;;;5.90;99.90;;;;;;5054529;28;20036;-74
2021/01/19 01:06:53;;;;;;;5.03;1.08;;;5.80;99.90;;;;;;5050183;28;20057;-74
2021/01/19 01:09:19;;;;;;;8.32;0.70;;;5.70;99.90;;;;;;5034717;28;20025;-74
2021/01/19 01:11:45;;;;;;;6.55;0.52;;;5.70;99.90;;;;;;5048058;28;20114;-74
2021/01/19 01:14:12;;;;;;;10.85;1.63;;;5.70;99.90;;;;;;5040749;28;20029;-74
2021/01/19 01:16:37;;;;;;;8.70;1.55;;;5.60;99.90;;;;;;5034421;28;20083;-74
2021/01/19 01:19:04;;;;;;;3.60;0.28;;;5.60;99.90;;;;;;5034495;28;20030;-74
2021/01/19 01:21:33;;;;;;;4.00;0.40;;;5.60;99.90;;;;;;5034911;28;20025;-74
2021/01/19 01:23:58;;;;;;;12.07;1.25;;;5.60;99.90;;;;;;5033130;28;20053;-74
2021/01/19 01:26:24;;;;;;;5.78;1.42;;;5.60;99.90;;;;;;5046399;28;20055;-75
2021/01/19 01:28:50;;;;;;;10.98;0.77;;;5.50;99.90;;;;;;5054437;28;20013;-74
2021/01/19 01:31:24;;;;;;;5.13;0.28;;;5.50;99.90;;;;;;5044303;28;20498;-74
2021/01/19 01:33:50;;;;;;;5.32;0.60;;;5.50;99.90;;;;;;5034478;28;20115;-74
2021/01/19 01:36:16;;;;;;;19.80;2.95;;;5.60;99.90;;;;;;5034114;28;20053;-74
2021/01/19 01:38:42;;;;;;;12.27;0.65;;;5.60;99.90;;;;;;5035335;28;20512;-74
2021/01/19 01:41:13;;;;;;;4.75;0.63;;;5.60;99.90;;;;;;5042350;28;20414;-74
2021/01/19 01:43:38;;;;;;;5.88;1.40;;;5.70;99.90;;;;;;5053105;28;20025;-74
2021/01/19 01:46:04;;;;;;;4.78;0.88;;;5.70;99.90;;;;;;5053983;28;20021;-74
2021/01/19 01:48:29;;;;;;;7.70;0.57;;;5.60;99.90;;;;;;5054400;28;20060;-74
2021/01/19 01:50:55;;;;;;;8.52;0.93;;;5.60;99.90;;;;;;5041319;28;20029;-74
2021/01/19 01:53:20;;;;;;;4.38;0.68;;;5.60;99.90;;;;;;5053323;28;20014;-74
2021/01/19 01:55:46;;;;;;;7.03;1.13;;;5.50;99.90;;;;;;5052215;28;20021;-74
2021/01/19 01:58:12;;;;;;;13.25;1.10;;;5.50;99.90;;;;;;5052212;28;20095;-74
2021/01/19 02:00:37;;;;;;;9.65;0.98;;;5.50;99.90;;;;;;5050808;28;20105;-74
2021/01/19 02:03:03;;;;;;;7.70;1.27;;;5.50;99.90;;;;;;5034604;28;20029;-74
2021/01/19 02:05:29;;;;;;;8.23;0.73;;;5.60;99.90;;;;;;5033762;28;20026;-74
2021/01/19 02:08:19;;;;;;;8.30;0.85;;;5.50;99.90;;;;;;5033797;28;20028;-74
2021/01/19 02:10:55;;;;;;;4.55;1.00;;;5.50;99.90;;;;;;5033828;28;20053;-73
2021/01/19 02:13:48;;;;;;;8.85;1.55;;;5.50;99.90;;;;;;5038763;28;20027;-74
2021/01/19 02:16:28;;;;;;;8.75;0.98;;;5.50;99.90;;;;;;5053588;28;20025;-73
2021/01/19 02:19:18;;;;;;;10.27;1.95;;;5.50;99.90;;;;;;5053547;28;20514;-73
2021/01/19 02:22:06;;;;;;;9.85;1.38;;;5.50;99.90;;;;;;5052221;28;20426;-73
2021/01/19 02:24:50;;;;;;;15.90;0.98;;;5.40;99.90;;;;;;5058884;28;20018;-74
2021/01/19 02:27:47;;;;;;;5.95;0.77;;;5.40;99.90;;;;;;5044768;28;20104;-73
2021/01/19 02:30:25;;;;;;;6.97;0.68;;;5.40;99.90;;;;;;5032274;28;20026;-74
2021/01/19 02:33:10;;;;;;;6.40;0.77;;;5.30;99.90;;;;;;5033637;28;20044;-74
2021/01/19 02:36:00;;;;;;;6.38;0.60;;;5.40;99.90;;;;;;5032286;28;20364;-73
2021/01/19 02:38:44;;;;;;;5.13;0.30;;;5.40;99.90;;;;;;5046544;28;20029;-74
2021/01/19 02:41:11;;;;;;;3.28;0.70;;;5.40;99.90;;;;;;5032500;28;20116;-73
2021/01/19 02:43:41;;;;;;;4.03;0.70;;;5.30;99.90;;;;;;5048035;28;20112;-74
2021/01/19 02:46:07;;;;;;;8.68;1.35;;;5.20;99.90;;;;;;5053380;28;20074;-74
2021/01/19 02:48:33;;;;;;;7.75;1.13;;;5.20;99.90;;;;;;5054668;28;20017;-74
2021/01/19 02:51:01;;;;;;;6.55;0.38;;;5.20;99.90;;;;;;5053595;28;20021;-73
2021/01/19 02:53:27;;;;;;;3.97;0.65;;;5.20;99.90;;;;;;5049236;28;20040;-73
2021/01/19 02:55:56;;;;;;;7.03;0.60;;;5.10;99.90;;;;;;5033606;28;20479;-73
2021/01/19 02:59:02;;;;;;;5.05;0.43;;;5.00;99.90;;;;;;5034658;28;20112;-73
2021/01/19 03:01:35;;;;;;;6.68;0.85;;;5.00;99.90;;;;;;4972132;28;20034;-73
2021/01/19 03:04:07;;;;;;;10.18;0.55;;;4.90;99.90;;;;;;4957561;28;20031;-73
2021/01/19 03:06:32;;;;;;;5.35;0.45;;;4.90;99.90;;;;;;5018279;28;20029;-73
2021/01/19 03:09:00;;;;;;;7.95;1.95;;;4.90;99.90;;;;;;5037117;28;20522;-73
2021/01/19 03:11:26;;;;;;;8.35;1.10;;;4.90;99.90;;;;;;5037092;28;20424;-73
2021/01/19 03:13:52;;;;;;;9.27;0.43;;;4.80;99.90;;;;;;5046636;28;20502;-73
2021/01/19 03:16:19;;;;;;;7.13;1.13;;;4.80;99.90;;;;;;5036797;28;20037;-73
2021/01/19 03:18:48;;;;;;;7.35;0.60;;;4.80;99.90;;;;;;5051436;28;20036;-73
2021/01/19 03:21:14;;;;;;;5.95;1.42;;;4.80;99.90;;;;;;5055244;28;20474;-74
2021/01/19 03:23:39;;;;;;;5.82;1.38;;;4.80;99.90;;;;;;5057342;28;20075;-73
2021/01/19 03:26:06;;;;;;;11.63;1.73;;;4.80;99.90;;;;;;5056650;28;20435;-73
2021/01/19 03:28:32;;;;;;;6.57;1.08;;;4.80;99.90;;;;;;5044195;28;20060;-73
2021/01/19 03:30:58;;;;;;;6.90;1.20;;;4.70;99.90;;;;;;5036498;28;20029;-73
2021/01/19 03:33:24;;;;;;;11.93;1.98;;;4.70;99.90;;;;;;5036427;28;20037;-74
2021/01/19 03:35:50;;;;;;;7.90;1.65;;;4.70;99.90;;;;;;5036213;28;20078;-73
2021/01/19 03:38:17;;;;;;;8.68;1.85;;;4.70;99.90;;;;;;5036495;28;20112;-73
2021/01/19 03:40:43;;;;;;;7.72;1.90;;;4.70;99.90;;;;;;5036483;28;20021;-73
2021/01/19 03:43:09;;;;;;;8.95;1.70;;;4.70;99.90;;;;;;5048591;28;20028;-74
2021/01/19 03:45:35;;;;;;;5.80;2.05;;;4.70;99.90;;;;;;5037618;28;20464;-73
2021/01/19 03:48:00;;;;;;;10.88;2.97;;;4.60;99.90;;;;;;5036522;28;20068;-74
2021/01/19 03:50:28;;;;;;;10.77;2.80;;;4.60;99.90;;;;;;5036017;28;20095;-74
2021/01/19 03:52:53;;;;;;;8.55;2.50;;;4.60;99.90;;;;;;5036028;28;20021;-74
2021/01/19 03:55:19;;;;;;;7.78;2.35;;;4.70;99.90;;;;;;5036132;28;20402;-73
2021/01/19 03:57:45;;;;;;;15.32;2.60;;;4.70;99.90;;;;;;5037869;28;20025;-73
2021/01/19 04:00:13;;;;;;;9.88;2.83;;;4.70;99.90;;;;;;5054827;28;20024;-74
2021/01/19 04:02:39;;;;;;;8.70;3.15;;;4.70;99.90;;;;;;5053807;28;20487;-74
2021/01/19 04:05:06;;;;;;;9.55;3.00;;;4.70;99.90;;;;;;5055802;28;20024;-74
2021/01/19 04:07:32;;;;;;;6.68;3.00;;;4.70;99.90;;;;;;5056152;28;20033;-74
2021/01/19 04:09:58;;;;;;;7.22;2.70;;;4.80;99.90;;;;;;5053994;28;20067;-74
2021/01/19 04:12:23;;;;;;;12.48;3.35;;;4.80;99.90;;;;;;5055207;28;20057;-74
2021/01/19 04:14:49;;;;;;;8.15;2.70;;;4.70;99.90;;;;;;5055608;28;20535;-74
2021/01/19 04:17:14;;;;;;;6.82;3.65;;;4.70;99.90;;;;;;5054430;28;20033;-73
2021/01/19 04:19:40;;;;;;;10.32;3.75;;;4.70;99.90;;;;;;5055266;28;20029;-73
2021/01/19 04:22:06;;;;;;;10.75;3.95;;;4.70;99.90;;;;;;5052051;28;20021;-73
2021/01/19 04:24:31;;;;;;;8.20;3.22;;;4.80;99.90;;;;;;5034072;28;20026;-73
2021/01/19 04:26:57;;;;;;;11.80;4.18;;;4.80;99.90;;;;;;5035386;28;20036;-73
2021/01/19 04:29:22;;;;;;;12.75;3.75;;;4.70;99.90;;;;;;5034064;28;20112;-73
2021/01/19 04:31:48;;;;;;;8.93;3.63;;;4.80;99.90;;;;;;5035383;28;20110;-73
2021/01/19 04:34:13;;;;;;;6.72;3.55;;;4.80;99.90;;;;;;5033817;28;20018;-74
2021/01/19 04:36:39;;;;;;;10.52;4.05;;;4.80;99.90;;;;;;5040840;28;20029;-73
2021/01/19 04:39:05;;;;;;;8.30;4.00;;;4.80;99.90;;;;;;5054078;28;20063;-73
2021/01/19 04:41:32;;;;;;;7.45;3.35;;;4.90;99.90;;;;;;5055285;28;20025;-73
2021/01/19 04:43:58;;;;;;;7.95;3.55;;;4.90;99.90;;;;;;5055024;28;20021;-73
2021/01/19 04:46:26;;;;;;;9.10;3.92;;;4.90;99.90;;;;;;5055436;28;20029;-76
2021/01/19 04:48:53;;;;;;;7.32;3.20;;;4.90;99.90;;;;;;5053736;28;20202;-76
2021/01/19 04:51:22;;;;;;;6.78;3.10;;;4.90;99.90;;;;;;5053720;28;20039;-76
2021/01/19 04:54:07;;;;;;;8.43;3.58;;;4.90;99.90;;;;;;5055043;28;20021;-76
2021/01/19 04:56:38;;;;;;;8.02;3.40;;;4.90;99.90;;;;;;5054822;28;20025;-77
2021/01/19 04:59:11;;;;;;;8.57;3.30;;;4.90;99.90;;;;;;5053909;28;20368;-77
2021/01/19 05:02:10;;;;;;;6.35;2.80;;;4.90;99.90;;;;;;5055114;28;20044;-77
2021/01/19 05:04:51;;;;;;;5.45;2.83;;;5.00;99.90;;;;;;5051024;28;20029;-77
2021/01/19 05:07:33;;;;;;;11.02;3.65;;;5.00;99.90;;;;;;5033729;28;20083;-77
2021/01/19 05:10:05;;;;;;;7.32;2.83;;;5.00;99.90;;;;;;5035081;28;20021;-77
2021/01/19 05:12:43;;;;;;;8.10;2.97;;;5.00;99.90;;;;;;5034112;28;20026;-77
2021/01/19 05:15:11;;;;;;;9.77;3.50;;;5.00;99.90;;;;;;5034409;28;20132;-77
2021/01/19 05:17:39;;;;;;;7.00;4.05;;;5.10;99.90;;;;;;5034527;28;20075;-77
2021/01/19 05:20:08;;;;;;;12.27;3.88;;;5.00;99.90;;;;;;5033224;28;20021;-77
2021/01/19 05:22:34;;;;;;;4.72;2.65;;;5.00;99.90;;;;;;5033586;28;20059;-77
2021/01/19 05:25:00;;;;;;;7.35;3.13;;;5.10;99.90;;;;;;5034379;28;20100;-77
2021/01/19 05:27:26;;;;;;;5.22;3.00;;;5.10;99.90;;;;;;5032771;28;20384;-77
2021/01/19 05:30:06;;;;;;;7.38;3.33;;;5.10;99.90;;;;;;5032678;28;20025;-77
2021/01/19 05:32:49;;;;;;;6.82;3.63;;;5.10;99.90;;;;;;5034680;28;20033;-77
2021/01/19 05:35:20;;;;;;;6.88;3.55;;;5.10;99.90;;;;;;5034121;28;20025;-77
2021/01/19 05:38:01;;;;;;;4.63;2.90;;;5.20;99.90;;;;;;5033894;28;20035;-78
2021/01/19 05:40:28;;;;;;;5.82;3.45;;;5.20;99.90;;;;;;5032960;28;20025;-78
2021/01/19 05:42:55;;;;;;;6.88;2.88;;;5.20;99.90;;;;;;5032977;28;20025;-78
2021/01/19 05:45:20;;;;;;;4.18;2.92;;;5.20;99.90;;;;;;5032804;28;20493;-78
2021/01/19 05:47:46;;;;;;;4.60;3.38;;;5.20;99.90;;;;;;5033879;28;20025;-78
2021/01/19 05:50:13;;;;;;;5.13;2.78;;;5.20;99.90;;;;;;5034302;28;20381;-77
2021/01/19 05:52:39;;;;;;;6.07;3.03;;;5.20;99.90;;;;;;5048147;28;20075;-78
2021/01/19 05:55:05;;;;;;;3.70;2.50;;;5.30;99.90;;;;;;5052774;28;20021;-77
2021/01/19 05:57:31;;;;;;;5.53;2.92;;;5.30;99.90;;;;;;5054047;28;20040;-77
2021/01/19 06:00:03;;;;;;;3.60;2.30;;;5.30;99.90;;;;;;5053295;28;20021;-77
2021/01/19 06:02:42;;;;;;;6.32;2.67;;;5.40;99.90;;;;;;5033210;28;20484;-77
2021/01/19 06:05:11;;;;;;;;;;;5.40;99.90;;;;;;5034502;28;20021;-77
2021/01/19 06:07:39;;;;;;;5.60;2.50;;;5.40;99.90;;;;;;5034101;28;19905;-77
2021/01/19 06:10:27;;;;;;;5.97;2.78;;;5.40;99.90;;;;;;5032960;28;20018;-77
2021/01/19 06:12:53;;;;;;;4.45;2.30;;;5.40;99.90;;;;;;5032723;28;20112;-77
2021/01/19 06:15:27;;;;;;;4.93;3.00;;;5.60;99.90;;;;;;5033694;28;20114;-77
2021/01/19 06:17:53;;;;;;;5.15;2.30;;;5.50;99.90;;;;;;5032736;28;20033;-77
2021/01/19 06:20:18;;;;;;;4.25;3.13;;;5.50;99.90;;;;;;5033834;28;20025;-78
2021/01/19 06:22:44;;;;;;;5.18;2.20;;;5.60;99.90;;;;;;5034245;28;20476;-77
2021/01/19 06:25:12;;;;;;;4.03;2.10;;;6.20;99.90;;;;;;5032815;28;20025;-77
2021/01/19 06:27:39;;;;;;;4.30;1.92;;;5.60;99.90;;;;;;5034252;28;20018;-77
2021/01/19 06:30:11;;;;;;;4.65;2.40;;;5.60;99.90;;;;;;5033613;28;20518;-76
2021/01/19 06:32:49;;;;;;;5.93;2.17;;;5.60;99.90;;;;;;5033832;28;20025;-76
2021/01/19 06:35:19;;;;;;;5.47;2.20;;;5.70;99.90;;;;;;5049707;28;20074;-76
2021/01/19 06:37:47;;;;;;;4.10;2.13;;;5.70;99.90;;;;;;5053340;28;20032;-77
2021/01/19 06:40:15;;;;;;;4.43;2.25;;;5.70;99.90;;;;;;5056782;28;20032;-77
2021/01/19 06:42:41;;;;;;;5.63;2.40;;;5.70;99.90;;;;;;5057178;28;20482;-76
2021/01/19 06:45:11;;;;;;;4.30;2.05;;;5.70;99.90;;;;;;5055840;28;20086;-75
2021/01/19 06:47:47;;;;;;;2.88;1.90;;;5.70;99.90;;;;;;5055736;28;20387;-76
2021/01/19 06:50:13;;;;;;;5.55;1.52;;;5.70;99.90;;;;;;5057764;28;20124;-76
2021/01/19 06:52:42;;;;;;;7.07;1.95;;;5.70;99.90;;;;;;5055834;28;20451;-76
2021/01/19 06:55:19;;;;;;;4.43;2.13;;;5.80;99.90;;;;;;5057314;28;20025;-76
2021/01/19 06:58:06;;;;;;;6.88;2.33;;;7.30;99.90;;;;;;5053843;28;20021;-75
2021/01/19 07:00:38;;;;;;;3.78;1.45;;;5.90;99.90;;;;;;5035624;28;20032;-72
2021/01/19 07:03:19;;;;;;;3.35;1.95;;;5.90;99.90;;;;;;5037267;28;20104;-73
2021/01/19 07:05:59;;;;;;;3.92;1.48;;;6.00;99.90;;;;;;5037201;28;20026;-72
2021/01/19 07:08:38;;;;;;;5.63;1.80;;;6.10;99.90;;;;;;5036901;28;20036;-73
2021/01/19 07:11:43;;;;;;;4.10;1.70;;;6.10;99.90;;;;;;5035236;28;20591;-73
2021/01/19 07:14:15;;;;;;;3.67;1.65;;;6.10;99.90;;;;;;5025979;28;20167;-74
2021/01/19 07:16:52;;;;;;;4.57;1.63;;;6.10;99.90;;;;;;5035496;28;20056;-73
2021/01/19 07:19:30;;;;;;;5.10;2.40;;;6.10;99.90;;;;;;5036774;28;20104;-73
2021/01/19 07:22:05;;;;;;;2.55;1.45;;;6.10;99.90;;;;;;5035568;28;20025;-73
2021/01/19 07:24:39;;;;;;;3.40;1.13;;;6.10;99.90;;;;;;5036446;28;20025;-73
2021/01/19 07:27:07;;;;;;;1.90;1.10;;;6.10;99.90;;;;;;5036484;28;20025;-73
2021/01/19 07:29:33;;;;;;;6.55;1.02;;;6.20;99.90;;;;;;5036725;28;20041;-74
2021/01/19 07:32:05;;;;;;;1.88;1.20;;;6.20;99.90;;;;;;5036685;28;20022;-74
2021/01/19 07:34:31;;;;;;;2.08;0.75;;;6.30;99.90;;;;;;5037157;28;20037;-75
2021/01/19 07:36:56;;;;;;;5.57;1.13;;;6.20;99.90;;;;;;5036702;28;20021;-75
2021/01/19 07:39:22;;;;;;;3.08;0.77;;;6.30;99.90;;;;;;5035637;28;20018;-75
2021/01/19 07:41:48;;;;;;;2.28;0.75;;;6.30;99.90;;;;;;5035537;28;20026;-75
2021/01/19 07:44:24;;;;;;;2.05;0.57;;;6.40;99.90;;;;;;5035184;28;20151;-75
2021/01/19 07:46:50;;;;;;;3.55;0.40;;;6.40;99.90;;;;;;5035237;28;20025;-74
2021/01/19 07:49:16;;;;;;;2.25;0.65;;;6.50;99.90;;;;;;5034981;28;20024;-74
2021/01/19 07:51:47;;;;;;;5.38;0.50;;;6.50;99.90;;;;;;5033796;28;20268;-74
2021/01/19 07:54:35;;;;;;;4.72;1.00;;;6.50;99.90;;;;;;5035243;28;20021;-73
2021/01/19 07:57:16;;;;;;;2.03;0.60;;;6.50;99.90;;;;;;5036308;28;20057;-74
2021/01/19 07:59:44;;;;;;;1.45;0.50;;;6.50;99.90;;;;;;5034824;28;20424;-74
2021/01/19 08:02:24;;;;;;;3.53;0.60;;;6.60;99.90;;;;;;5034706;28;20483;-74
2021/01/19 08:05:05;;;;;;;1.80;0.50;;;6.60;99.90;;;;;;5036149;28;20109;-74
2021/01/19 08:07:44;;;;;;;2.83;1.00;;;6.60;99.90;;;;;;5035353;28;20021;-74
2021/01/19 08:10:33;;;;;;;2.33;0.50;;;6.60;99.90;;;;;;5034415;28;20021;-74
2021/01/19 08:13:00;;;;;;;1.90;0.68;;;6.60;99.90;;;;;;5025925;28;20045;-74
2021/01/19 08:15:32;;;;;;;5.13;0.45;;;6.70;99.90;;;;;;5034287;28;20112;-73
2021/01/19 08:17:59;;;;;;;3.00;0.30;;;6.70;99.90;;;;;;5036338;28;20036;-73
2021/01/19 08:20:35;;;;;;;4.15;0.63;;;6.70;99.90;;;;;;5036235;28;20013;-74
2021/01/19 08:23:16;;;;;;;2.80;0.50;;;6.70;99.90;;;;;;5036342;28;20017;-73
2021/01/19 08:25:42;;;;;;;1.73;0.30;;;6.80;99.90;;;;;;5035938;28;20025;-73
2021/01/19 08:28:09;;;;;;;2.15;0.43;;;6.80;99.90;;;;;;5034641;28;20017;-73
2021/01/19 08:30:37;;;;;;;2.13;0.50;;;6.80;99.90;;;;;;5035723;28;20527;-73
2021/01/19 08:33:03;;;;;;;3.92;0.25;;;6.80;99.90;;;;;;5034324;28;20022;-73
2021/01/19 08:35:30;;;;;;;1.52;0.50;;;6.80;99.90;;;;;;5035663;28;20074;-73
2021/01/19 08:37:59;;;;;;;1.60;0.52;;;6.80;99.90;;;;;;5035664;28;20096;-73
2021/01/19 08:40:29;;;;;;;0.50;0.20;;;6.90;99.90;;;;;;5035505;28;20025;-73
2021/01/19 08:42:56;;;;;;;2.83;0.20;;;6.80;99.90;;;;;;5034143;28;20033;-76
2021/01/19 08:45:31;;;;;;;3.50;0.50;;;6.90;99.90;;;;;;5034028;28;20112;-73
2021/01/19 08:47:58;;;;;;;1.27;0.63;;;6.90;99.90;;;;;;5035408;28;20032;-73
2021/01/19 08:50:25;;;;;;;0.65;0.38;;;6.90;99.90;;;;;;5034346;28;20395;-74
2021/01/19 08:52:51;;;;;;;1.33;0.50;;;6.90;99.90;;;;;;5033978;28;20074;-74
2021/01/19 08:55:22;;;;;;;1.95;0.30;;;7.00;99.90;;;;;;5034992;28;20033;-73
2021/01/19 08:57:54;;;;;;;1.77;0.45;;;7.00;99.90;;;;;;5035359;28;20472;-73
2021/01/19 09:00:30;;;;;;;1.75;0.40;;;7.00;99.90;;;;;;5035178;28;20100;-73
2021/01/19 09:02:59;;;;;;;2.38;0.30;;;7.10;99.90;;;;;;5032973;28;20017;-74
2021/01/19 09:05:29;;;;;;;2.88;1.15;;;7.10;99.90;;;;;;5033801;28;20396;-73
2021/01/19 09:07:58;;;;;;;2.35;0.40;;;7.10;99.90;;;;;;5034749;28;20365;-73
2021/01/19 09:10:24;;;;;;;;;;;7.10;99.90;;;;;;5034104;28;20022;-73
2021/01/19 09:12:51;;;;;;;0.60;0.25;;;7.10;99.90;;;;;;5102229;22;20276;-74
2021/01/19 09:15:17;;;;;;;1.40;0.43;;;7.10;99.90;;;;;;5074661;28;20103;-73
2021/01/19 09:17:54;;;;;;;2.50;0.22;;;7.10;99.90;;;;;;5056899;28;20067;-74
2021/01/19 09:20:20;;;;;;;2.00;0.08;;;7.10;99.90;;;;;;5054931;28;20410;-74
2021/01/19 09:22:46;;;;;;;3.97;1.23;;;7.20;99.90;;;;;;5054769;28;20017;-74
2021/01/19 09:25:12;;;;;;;2.97;0.20;;;7.20;99.90;;;;;;5055060;28;20021;-74
2021/01/19 09:27:39;;;;;;;1.05;0.30;;;7.20;99.90;;;;;;5053300;28;20025;-74
2021/01/19 09:30:10;;;;;;;1.08;0.43;;;7.20;99.90;;;;;;5053301;28;20017;-76
2021/01/19 09:32:40;;;;;;;2.15;0.13;;;7.30;99.90;;;;;;5052757;28;20024;-74
2021/01/19 09:35:07;;;;;;;0.17;0.00;;;7.30;99.90;;;;;;5053848;28;20025;-74
2021/01/19 09:37:38;;;;;;;0.22;0.10;;;7.30;99.90;;;;;;5052673;28;20104;-73
2021/01/19 09:40:05;;;;;;;1.25;0.25;;;6.70;99.90;;;;;;5054364;28;20551;-74
2021/01/19 09:42:31;;;;;;;0.20;0.10;;;7.40;99.90;;;;;;5052588;28;20406;-74
2021/01/19 09:44:58;;;;;;;0.60;0.30;;;7.40;99.90;;;;;;5054028;28;20531;-74
2021/01/19 09:47:25;;;;;;;0.93;0.20;;;7.40;99.90;;;;;;5053600;28;20070;-74
2021/01/19 09:49:53;;;;;;;3.17;0.17;;;7.50;99.90;;;;;;5052541;28;20483;-75
2021/01/19 09:52:28;;;;;;;1.10;0.20;;;7.50;99.90;;;;;;5054313;28;20140;-74
2021/01/19 09:54:53;;;;;;;0.38;0.10;;;7.50;99.90;;;;;;5054701;28;20035;-74
2021/01/19 09:57:25;;;;;;;1.10;0.47;;;7.50;99.90;;;;;;5054304;28;20025;-74
2021/01/19 09:59:51;;;;;;;0.50;0.20;;;7.50;99.90;;;;;;5054567;28;20049;-74
2021/01/19 10:02:28;;;;;;;1.13;0.30;;;7.60;99.90;;;;;;5054775;28;20506;-74
2021/01/19 10:05:08;;;;;;;0.98;0.30;;;7.60;99.90;;;;;;5054486;28;20021;-76
2021/01/19 10:07:36;;;;;;;2.58;0.40;;;7.70;99.90;;;;;;5054885;28;20017;-74
2021/01/19 10:10:14;;;;;;;1.27;0.55;;;7.70;99.90;;;;;;5052863;28;20025;-74
2021/01/19 10:12:43;;;;;;;1.95;0.52;;;7.80;99.90;;;;;;5053773;28;20044;-73
2021/01/19 10:15:12;;;;;;;;;;;7.80;99.90;;;;;;5054410;28;20063;-72
2021/01/19 10:17:38;;;;;;;1.85;0.60;;;7.90;99.90;;;;;;5054377;28;20378;-74
2021/01/19 10:20:16;;;;;;;3.33;1.20;;;8.00;99.90;;;;;;5053204;28;20025;-74
2021/01/19 10:22:44;;;;;;;3.75;1.20;;;8.00;99.90;;;;;;5053027;28;20032;-74
2021/01/19 10:25:12;;;;;;;2.97;1.27;;;8.00;99.90;;;;;;5052884;28;20017;-74
2021/01/19 10:27:46;;;;;;;4.50;1.52;;;8.10;99.90;;;;;;5054161;28;20021;-74
2021/01/19 10:30:13;;;;;;;1.52;0.93;;;9.50;99.90;;;;;;5054415;28;20479;-74
2021/01/19 10:32:50;;;;;;;2.78;1.27;;;8.10;99.90;;;;;;5052498;28;20506;-74
2021/01/19 10:35:29;;;;;;;1.90;0.73;;;8.20;99.90;;;;;;5052126;28;20075;-74
2021/01/19 10:38:12;;;;;;;5.63;1.23;;;8.30;99.90;;;;;;5054041;28;20471;-75
2021/01/19 10:40:45;;;;;;;3.33;0.98;;;8.40;99.90;;;;;;5054052;28;20029;-74
2021/01/19 10:43:14;;;;;;;4.75;0.98;;;8.40;99.90;;;;;;5054176;28;20017;-74
2021/01/19 10:45:41;;;;;;;6.28;1.05;;;8.50;99.90;;;;;;5053458;28;20029;-74
2021/01/19 10:48:20;;;;;;;11.00;0.80;;;8.70;99.90;;;;;;5052114;28;20017;-73
2021/01/19 10:50:45;;;;;;;10.70;2.33;;;8.80;99.90;;;;;;5052406;28;20048;-73
2021/01/19 10:53:11;;;;;;;5.72;0.57;;;9.00;99.90;;;;;;5052086;28;20048;-74
2021/01/19 10:55:37;;;;;;;5.90;0.30;;;9.00;99.90;;;;;;5052155;28;20021;-75
2021/01/19 10:58:04;;;;;;;5.35;0.10;;;9.20;99.90;;;;;;5052589;28;20039;-74
2021/01/19 11:00:31;;;;;;;4.47;0.30;;;9.30;99.90;;;;;;5053620;28;20025;-73
2021/01/19 11:02:56;;;;;;;6.78;0.30;;;9.30;99.90;;;;;;5053756;28;20017;-73
2021/01/19 11:05:23;;;;;;;3.60;0.47;;;9.40;99.90;;;;;;5053913;28;20036;-74
2021/01/19 11:07:51;;;;;;;4.60;0.13;;;9.40;99.90;;;;;;5054356;28;20056;-74
2021/01/19 11:10:19;;;;;;;4.45;0.15;;;9.40;99.90;;;;;;5054634;28;20074;-74
2021/01/19 11:12:45;;;;;;;8.32;1.05;;;9.50;99.90;;;;;;5053753;28;20064;-73
2021/01/19 11:15:12;;;;;;;3.13;0.55;;;9.50;99.90;;;;;;5053948;28;20029;-72
2021/01/19 11:17:38;;;;;;;1.52;0.25;;;9.60;99.90;;;;;;5053484;28;20025;-73
2021/01/19 11:20:09;;;;;;;9.27;1.27;;;9.60;99.90;;;;;;5052255;28;20075;-74
2021/01/19 11:22:35;;;;;;;5.88;0.73;;;9.70;99.90;;;;;;5053166;28;20017;-75
2021/01/19 11:25:04;;;;;;;3.83;0.15;;;9.70;99.90;;;;;;5053289;28;20039;-75
2021/01/19 11:27:30;;;;;;;2.90;0.45;;;9.70;99.90;;;;;;5056601;28;20398;-75
2021/01/19 11:29:56;;;;;;;7.45;0.40;;;9.70;99.90;;;;;;5056904;28;20100;-75
2021/01/19 11:32:22;;;;;;;5.07;0.15;;;9.70;99.90;;;;;;5057349;28;20025;-72
2021/01/19 11:34:48;;;;;;;4.18;0.10;;;9.80;99.90;;;;;;5056666;28;20029;-72
2021/01/19 11:37:14;;;;;;;4.00;0.57;;;9.80;99.90;;;;;;5056429;28;20434;-72
2021/01/19 11:39:41;;;;;;;5.75;1.13;;;9.70;99.90;;;;;;5056263;28;20499;-72
2021/01/19 11:42:07;;;;;;;9.50;1.00;;;9.80;99.90;;;;;;5056518;28;20048;-72
2021/01/19 11:44:35;;;;;;;8.52;0.80;;;9.80;99.90;;;;;;5056859;28;20017;-72
2021/01/19 11:47:01;;;;;;;5.10;0.10;;;9.80;99.90;;;;;;5056244;28;20096;-72
2021/01/19 11:49:27;;;;;;;4.45;0.20;;;9.80;99.90;;;;;;5056461;28;20482;-72
2021/01/19 11:51:53;;;;;;;4.68;0.10;;;9.80;99.90;;;;;;5056556;28;20025;-72
2021/01/19 11:54:18;;;;;;;4.88;0.28;;;9.80;99.90;;;;;;5056800;28;20077;-72
2021/01/19 11:56:48;;;;;;;6.78;0.52;;;9.80;99.90;;;;;;5056261;28;20033;-72
2021/01/19 11:59:15;;;;;;;4.85;0.30;;;9.80;99.90;;;;;;5055826;28;20041;-72
2021/01/19 12:01:41;;;;;;;5.10;0.10;;;9.80;99.90;;;;;;5055827;28;20033;-72
2021/01/19 12:04:08;;;;;;;5.00;0.00;;;9.90;99.90;;;;;;5056438;28;20104;-73
2021/01/19 12:06:38;;;;;;;8.07;0.20;;;9.80;99.90;;;;;;5054939;28;20021;-72
2021/01/19 12:09:05;;;;;;;6.68;0.85;;;9.90;99.90;;;;;;5056359;28;20071;-72
2021/01/19 12:11:31;;;;;;;7.30;0.45;;;9.90;99.90;;;;;;5054860;28;20035;-72
2021/01/19 12:13:57;;;;;;;9.43;0.68;;;9.90;99.90;;;;;;5055407;28;20465;-72
2021/01/19 12:16:23;;;;;;;6.00;0.47;;;10.00;99.90;;;;;;5054150;28;20025;-72
2021/01/19 12:18:50;;;;;;;8.73;1.35;;;10.00;99.90;;;;;;5055647;28;20025;-72
2021/01/19 12:21:16;;;;;;;8.93;0.55;;;10.00;99.90;;;;;;5055456;28;20029;-78
2021/01/19 12:23:46;;;;;;;6.28;0.30;;;10.00;99.90;;;;;;5055589;28;20020;-74
2021/01/19 12:26:12;;;;;;;8.93;0.68;;;10.00;99.90;;;;;;5056173;28;20036;-74
2021/01/19 12:28:39;;;;;;;4.50;0.55;;;10.10;99.90;;;;;;5055832;28;20024;-73
2021/01/19 12:31:05;;;;;;;6.15;0.40;;;10.10;99.90;;;;;;5055495;28;20025;-73
2021/01/19 12:33:31;;;;;;;7.47;0.93;;;10.10;99.90;;;;;;5055893;28;20031;-73
2021/01/19 12:35:56;;;;;;;7.82;0.65;;;10.10;99.90;;;;;;5054622;28;20052;-75
2021/01/19 12:38:22;;;;;;;12.07;0.65;;;10.20;99.90;;;;;;5054092;28;20025;-75
2021/01/19 12:40:48;;;;;;;7.70;1.27;;;10.20;99.90;;;;;;5053802;28;20025;-75
2021/01/19 12:43:14;;;;;;;5.45;0.22;;;10.20;99.90;;;;;;5054466;28;20098;-75
2021/01/19 12:45:40;;;;;;;7.30;0.57;;;10.20;99.90;;;;;;5055922;28;20061;-75
2021/01/19 12:48:07;;;;;;;13.85;0.55;;;10.20;99.90;;;;;;5055681;28;20055;-75
2021/01/19 12:50:34;;;;;;;5.22;0.75;;;10.20;99.90;;;;;;5054392;28;20025;-75
2021/01/19 12:53:03;;;;;;;8.05;0.80;;;10.20;99.90;;;;;;5055722;28;20604;-75
2021/01/19 12:55:30;;;;;;;9.65;0.65;;;10.20;99.90;;;;;;5055356;28;20021;-75
2021/01/19 12:57:55;;;;;;;9.75;0.88;;;10.20;99.90;;;;;;5053974;28;20020;-75
2021/01/19 13:00:22;;;;;;;8.05;0.80;;;10.20;99.90;;;;;;5055277;28;20025;-75
2021/01/19 13:02:47;;;;;;;17.23;2.08;;;10.20;99.90;;;;;;5055299;28;20135;-75
2021/01/19 13:05:13;;;;;;;8.32;0.68;;;10.20;99.90;;;;;;5055232;28;20095;-74
2021/01/19 13:07:40;;;;;;;7.43;0.38;;;10.20;99.90;;;;;;5055320;28;20020;-74